createdAt,value
2019-05-20T00:01:01.350Z,29.70
2019-05-20T00:03:33.538Z,29.70
2019-05-20T00:06:06.533Z,29.70
2019-05-20T00:08:39.380Z,29.70
2019-05-20T00:11:11.760Z,29.80
2019-05-20T00:13:44.228Z,29.80
2019-05-20T00:16:16.571Z,29.80
2019-05-20T00:18:49.072Z,29.80
2019-05-20T00:21:21.444Z,29.80
2019-05-20T00:23:53.835Z,29.80
2019-05-20T00:26:26.102Z,29.80
2019-05-20T00:28:58.221Z,29.90
2019-05-20T00:31:30.369Z,29.90
2019-05-20T00:34:02.410Z,29.90
2019-05-20T00:36:34.707Z,29.90
2019-05-20T00:39:10.113Z,29.90
2019-05-20T00:41:42.431Z,30.00
2019-05-20T00:44:17.704Z,30.00
2019-05-20T00:46:50.323Z,30.10
2019-05-20T00:49:22.274Z,30.10
2019-05-20T00:51:54.702Z,30.10
2019-05-20T00:54:26.967Z,30.20
2019-05-20T00:56:59.245Z,30.20
2019-05-20T00:59:31.868Z,30.20
2019-05-20T01:02:03.934Z,30.30
2019-05-20T01:04:36.005Z,30.30
2019-05-20T01:07:09.820Z,30.30
2019-05-20T01:09:41.993Z,30.40
2019-05-20T01:12:14.036Z,30.50
2019-05-20T01:14:46.717Z,30.50
2019-05-20T01:17:18.739Z,30.50
2019-05-20T01:19:50.974Z,30.60
2019-05-20T01:22:22.980Z,30.60
2019-05-20T01:24:56.057Z,30.60
2019-05-20T01:27:28.109Z,30.70
2019-05-20T01:30:00.158Z,30.70
2019-05-20T01:32:32.187Z,30.80
2019-05-20T01:35:04.493Z,30.80
2019-05-20T01:37:36.550Z,30.80
2019-05-20T01:40:09.080Z,30.90
2019-05-20T01:42:41.349Z,30.90
2019-05-20T01:45:13.956Z,30.90
2019-05-20T01:47:47.093Z,31.00
2019-05-20T01:50:19.338Z,31.10
2019-05-20T01:52:51.262Z,31.10
2019-05-20T01:55:23.245Z,31.10
2019-05-20T01:57:55.741Z,31.20
2019-05-20T02:00:28.292Z,31.20
2019-05-20T02:03:00.500Z,31.30
2019-05-20T02:05:32.628Z,31.30
2019-05-20T02:08:05.240Z,31.40
2019-05-20T02:10:38.586Z,31.40
2019-05-20T02:13:14.064Z,31.40
2019-05-20T02:15:54.844Z,31.50
2019-05-20T02:18:26.933Z,31.50
2019-05-20T02:20:58.878Z,31.60
2019-05-20T02:23:31.338Z,31.70
2019-05-20T02:26:22.407Z,31.70
2019-05-20T02:28:54.493Z,31.70
2019-05-20T02:31:26.798Z,31.80
2019-05-20T02:33:59.382Z,31.90
2019-05-20T02:36:31.824Z,31.90
2019-05-20T02:39:26.731Z,32.10
2019-05-20T02:41:57.925Z,32.10
2019-05-20T02:44:50.584Z,32.20
2019-05-20T02:47:22.479Z,32.20
2019-05-20T02:49:55.174Z,32.30
2019-05-20T02:52:27.088Z,32.40
2019-05-20T02:54:59.478Z,32.50
2019-05-20T02:57:32.082Z,32.50
2019-05-20T03:00:24.410Z,32.60
2019-05-20T03:02:56.141Z,32.70
2019-05-20T03:05:28.171Z,32.80
2019-05-20T03:08:01.601Z,32.90
2019-05-20T03:10:33.667Z,32.90
2019-05-20T03:13:06.887Z,33.00
2019-05-20T03:15:59.972Z,33.10
2019-05-20T03:18:32.369Z,33.20
2019-05-20T03:21:04.613Z,33.30
2019-05-20T03:23:36.949Z,33.30
2019-05-20T03:26:11.119Z,33.40
2019-05-20T03:28:43.277Z,33.50
2019-05-20T03:31:17.788Z,33.50
2019-05-20T03:33:59.477Z,33.60
2019-05-20T03:36:31.666Z,33.60
2019-05-20T03:39:22.753Z,33.60
2019-05-20T03:41:55.565Z,33.70
2019-05-20T03:44:37.326Z,33.80
2019-05-20T03:47:09.907Z,33.80
2019-05-20T03:49:42.083Z,33.90
2019-05-20T03:52:14.451Z,34.00
2019-05-20T03:54:47.137Z,34.00
2019-05-20T03:57:20.275Z,34.10
2019-05-20T03:59:52.720Z,34.20
2019-05-20T04:02:25.760Z,34.20
2019-05-20T04:05:02.739Z,34.40
2019-05-20T04:07:32.151Z,34.40
2019-05-20T04:10:05.201Z,34.50
2019-05-20T04:12:37.429Z,34.60
2019-05-20T04:15:10.191Z,34.70
2019-05-20T04:17:42.230Z,34.80
2019-05-20T04:20:16.542Z,34.90
2019-05-20T04:22:49.114Z,34.90
2019-05-20T04:25:21.160Z,35.00
2019-05-20T04:27:53.648Z,35.20
2019-05-20T04:30:25.766Z,35.30
2019-05-20T04:32:57.980Z,35.40
2019-05-20T04:35:30.497Z,35.50
2019-05-20T04:38:02.773Z,35.70
2019-05-20T04:40:36.801Z,35.80
2019-05-20T04:43:24.215Z,36.00
2019-05-20T04:45:57.338Z,36.20
2019-05-20T04:48:30.231Z,36.30
2019-05-20T04:51:22.464Z,36.30
2019-05-20T04:53:54.939Z,36.40
2019-05-20T04:56:29.330Z,36.50
2019-05-20T04:59:01.753Z,36.60
2019-05-20T05:01:34.465Z,36.60
2019-05-20T05:04:06.574Z,36.70
2019-05-20T05:06:39.058Z,36.80
2019-05-20T05:09:11.468Z,36.90
2019-05-20T05:11:43.840Z,37.00
2019-05-20T05:14:16.155Z,37.20
2019-05-20T05:16:48.056Z,37.40
2019-05-20T05:19:20.236Z,37.50
2019-05-20T05:21:52.469Z,37.60
2019-05-20T05:24:25.873Z,37.80
2019-05-20T05:26:59.582Z,37.80
2019-05-20T05:29:32.253Z,38.00
2019-05-20T05:32:04.565Z,38.00
2019-05-20T05:34:36.952Z,38.10
2019-05-20T05:37:09.696Z,38.20
2019-05-20T05:39:41.746Z,38.30
2019-05-20T05:42:13.800Z,38.40
2019-05-20T05:44:46.540Z,38.50
2019-05-20T05:47:18.484Z,38.50
2019-05-20T05:49:50.394Z,38.50
2019-05-20T05:52:23.535Z,38.50
2019-05-20T05:54:55.829Z,38.70
2019-05-20T05:57:28.245Z,38.80
2019-05-20T06:00:00.572Z,38.90
2019-05-20T06:02:32.799Z,38.90
2019-05-20T06:05:05.206Z,38.90
2019-05-20T06:07:37.589Z,38.90
2019-05-20T06:10:11.851Z,38.90
2019-05-20T06:12:43.985Z,38.90
2019-05-20T06:15:16.892Z,38.90
2019-05-20T06:17:49.063Z,39.00
2019-05-20T06:20:29.182Z,39.00
2019-05-20T06:23:01.383Z,39.00
2019-05-20T06:25:34.157Z,39.00
2019-05-20T06:28:06.320Z,39.00
2019-05-20T06:30:42.660Z,39.00
2019-05-20T06:33:15.377Z,39.00
2019-05-20T06:35:47.592Z,39.00
2019-05-20T06:38:22.364Z,39.10
2019-05-20T06:40:54.523Z,39.10
2019-05-20T06:43:26.607Z,39.20
2019-05-20T06:45:59.504Z,39.20
2019-05-20T06:48:31.797Z,39.30
2019-05-20T06:51:03.989Z,39.40
2019-05-20T06:53:36.560Z,39.40
2019-05-20T06:56:28.789Z,39.40
2019-05-20T06:59:21.172Z,39.40
2019-05-20T07:01:53.213Z,39.40
2019-05-20T07:04:45.243Z,39.50
2019-05-20T07:07:21.001Z,39.50
2019-05-20T07:09:51.630Z,39.50
2019-05-20T07:12:38.541Z,39.60
2019-05-20T07:14:57.655Z,39.60
2019-05-20T07:17:29.986Z,39.60
2019-05-20T07:20:02.594Z,39.70
2019-05-20T07:22:53.867Z,39.80
2019-05-20T07:25:10.000Z,39.90
2019-05-20T07:27:42.182Z,40.00
2019-05-20T07:30:23.658Z,40.10
2019-05-20T07:32:56.014Z,40.20
2019-05-20T07:35:30.721Z,40.20
2019-05-20T07:38:02.234Z,40.30
2019-05-20T07:43:24.288Z,40.10
2019-05-20T07:45:56.921Z,40.00
2019-05-20T07:48:30.342Z,40.00
2019-05-20T07:51:04.048Z,39.90
2019-05-20T07:53:36.891Z,39.90
2019-05-20T07:56:12.506Z,39.90
2019-05-20T07:59:05.973Z,39.90
2019-05-20T08:01:39.463Z,39.90
2019-05-20T08:04:11.539Z,39.80
2019-05-20T08:06:46.347Z,39.80
2019-05-20T08:09:18.414Z,39.80
2019-05-20T08:11:50.477Z,39.90
2019-05-20T08:14:22.708Z,40.00
2019-05-20T08:16:55.360Z,40.00
2019-05-20T08:19:27.804Z,40.10
2019-05-20T08:21:59.668Z,40.10
2019-05-20T08:24:31.962Z,40.20
2019-05-20T08:27:04.423Z,40.20
2019-05-20T08:29:36.417Z,40.10
2019-05-20T08:32:08.865Z,40.10
2019-05-20T08:34:41.210Z,40.00
2019-05-20T08:37:13.122Z,40.00
2019-05-20T08:39:45.467Z,40.10
2019-05-20T08:42:18.098Z,40.10
2019-05-20T08:44:50.765Z,40.20
2019-05-20T08:47:23.098Z,40.20
2019-05-20T08:49:55.547Z,40.20
2019-05-20T08:52:28.181Z,40.10
2019-05-20T08:55:02.804Z,40.10
2019-05-20T08:57:34.834Z,40.00
2019-05-20T09:00:09.690Z,40.00
2019-05-20T09:02:42.701Z,40.00
2019-05-20T09:05:33.774Z,40.00
2019-05-20T09:08:07.409Z,40.00
2019-05-20T09:10:59.187Z,40.00
2019-05-20T09:13:31.272Z,39.90
2019-05-20T09:16:03.754Z,39.90
2019-05-20T09:18:35.992Z,39.80
2019-05-20T09:21:08.687Z,39.80
2019-05-20T09:23:41.336Z,39.90
2019-05-20T09:26:13.596Z,39.80
2019-05-20T09:28:45.929Z,39.80
2019-05-20T09:31:18.055Z,39.60
2019-05-20T09:33:50.881Z,39.60
2019-05-20T09:36:25.918Z,39.60
2019-05-20T09:38:57.436Z,39.60
2019-05-20T09:41:29.646Z,39.50
2019-05-20T09:44:01.754Z,39.50
2019-05-20T09:46:33.845Z,39.50
2019-05-20T09:49:06.049Z,39.50
2019-05-20T09:51:38.479Z,39.40
2019-05-20T09:54:30.646Z,39.40
2019-05-20T09:57:02.544Z,39.40
2019-05-20T09:59:43.364Z,39.40
2019-05-20T10:02:10.562Z,39.50
2019-05-20T10:04:44.045Z,39.40
2019-05-20T10:07:17.442Z,39.40
2019-05-20T10:09:50.943Z,39.40
2019-05-20T10:12:23.377Z,39.30
2019-05-20T10:14:55.509Z,39.20
2019-05-20T10:17:27.796Z,39.30
2019-05-20T10:19:59.983Z,39.20
2019-05-20T10:22:31.940Z,39.20
2019-05-20T10:25:04.159Z,39.10
2019-05-20T10:27:36.411Z,39.00
2019-05-20T10:30:11.920Z,39.00
2019-05-20T10:33:03.282Z,38.90
2019-05-20T10:35:36.322Z,38.80
2019-05-20T10:38:08.480Z,38.80
2019-05-20T10:40:40.748Z,38.70
2019-05-20T10:43:13.308Z,38.60
2019-05-20T10:45:45.526Z,38.60
2019-05-20T10:48:36.994Z,38.50
2019-05-20T10:51:10.448Z,38.30
2019-05-20T10:53:43.006Z,38.20
2019-05-20T10:56:15.223Z,38.10
2019-05-20T10:58:48.297Z,38.10
2019-05-20T11:01:20.748Z,38.00
2019-05-20T11:03:53.153Z,37.90
2019-05-20T11:06:25.383Z,37.80
2019-05-20T11:09:11.698Z,37.80
2019-05-20T11:11:31.721Z,37.70
2019-05-20T11:14:03.996Z,37.70
2019-05-20T11:16:36.320Z,37.70
2019-05-20T11:19:08.970Z,37.60
2019-05-20T11:21:42.025Z,37.60
2019-05-20T11:24:18.807Z,37.40
2019-05-20T11:26:50.943Z,37.40
2019-05-20T11:29:23.021Z,37.30
2019-05-20T11:31:55.040Z,37.20
2019-05-20T11:34:27.090Z,37.10
2019-05-20T11:37:20.161Z,37.00
2019-05-20T11:39:53.226Z,36.90
2019-05-20T11:42:25.245Z,36.80
2019-05-20T11:44:57.397Z,36.70
2019-05-20T11:47:29.700Z,36.60
2019-05-20T11:50:02.536Z,36.60
2019-05-20T11:52:34.877Z,36.50
2019-05-20T11:55:08.159Z,36.40
2019-05-20T11:57:40.692Z,36.40
2019-05-20T12:00:14.567Z,36.30
2019-05-20T12:02:47.078Z,36.20
2019-05-20T12:05:19.920Z,36.10
2019-05-20T12:07:51.983Z,36.10
2019-05-20T12:10:25.084Z,36.00
2019-05-20T12:12:57.563Z,36.00
2019-05-20T12:15:29.882Z,35.90
2019-05-20T12:18:01.818Z,35.90
2019-05-20T12:20:33.904Z,35.90
2019-05-20T12:23:06.375Z,35.80
2019-05-20T12:25:39.012Z,35.70
2019-05-20T12:28:17.902Z,35.70
2019-05-20T12:30:49.850Z,35.70
2019-05-20T12:33:21.992Z,35.70
2019-05-20T12:35:54.603Z,35.60
2019-05-20T12:38:27.847Z,35.50
2019-05-20T12:41:18.982Z,35.50
2019-05-20T12:44:10.100Z,35.50
2019-05-20T12:46:25.762Z,35.50
2019-05-20T12:48:57.872Z,35.40
2019-05-20T12:51:29.971Z,35.40
2019-05-20T12:54:02.322Z,35.40
2019-05-20T12:56:34.261Z,35.30
2019-05-20T12:59:06.766Z,35.30
2019-05-20T13:01:38.996Z,35.30
2019-05-20T13:04:11.482Z,35.30
2019-05-20T13:06:43.629Z,35.20
2019-05-20T13:09:15.467Z,35.20
2019-05-20T13:11:47.614Z,35.20
2019-05-20T13:14:19.934Z,35.20
2019-05-20T13:16:51.885Z,35.10
2019-05-20T13:19:24.371Z,35.10
2019-05-20T13:21:56.547Z,35.10
2019-05-20T13:24:28.789Z,35.10
2019-05-20T13:27:01.346Z,35.10
2019-05-20T13:29:33.709Z,35.10
2019-05-20T13:32:06.180Z,35.10
2019-05-20T13:34:38.231Z,35.10
2019-05-20T13:37:10.339Z,35.00
2019-05-20T13:39:42.476Z,35.00
2019-05-20T13:42:14.751Z,35.00
2019-05-20T13:44:47.710Z,35.00
2019-05-20T13:47:19.767Z,35.00
2019-05-20T16:24:49.558Z,32.60
2019-05-20T16:27:21.650Z,32.40
2019-05-20T16:30:05.355Z,32.40
2019-05-20T16:32:29.566Z,32.40
2019-05-20T16:35:02.032Z,32.40
2019-05-20T16:37:34.710Z,32.40
2019-05-20T16:40:10.202Z,32.40
2019-05-20T16:42:42.625Z,32.30
2019-05-20T16:45:17.232Z,32.30
2019-05-20T16:47:49.413Z,32.30
2019-05-20T16:50:22.053Z,32.30
2019-05-20T16:52:54.535Z,32.20
2019-05-20T16:55:29.417Z,32.20
2019-05-20T16:58:01.772Z,32.20
2019-05-20T17:00:34.092Z,32.20
2019-05-20T17:03:06.425Z,32.10
2019-05-20T17:05:39.457Z,32.10
2019-05-20T17:08:11.272Z,32.10
2019-05-20T17:10:43.349Z,32.00
2019-05-20T17:13:15.435Z,32.00
2019-05-20T17:15:47.900Z,32.00
2019-05-20T17:18:20.069Z,32.00
2019-05-20T17:20:52.144Z,31.90
2019-05-20T17:23:24.439Z,31.90
2019-05-20T17:25:56.767Z,31.90
2019-05-20T17:28:29.256Z,31.90
2019-05-20T17:31:01.421Z,31.80
2019-05-20T17:33:33.898Z,31.80
2019-05-20T17:36:06.368Z,31.70
2019-05-20T17:38:38.855Z,31.70
2019-05-20T17:41:10.992Z,31.70
2019-05-20T17:43:43.814Z,31.60
2019-05-20T17:46:16.362Z,31.60
2019-05-20T17:48:48.646Z,31.60
2019-05-20T17:51:20.828Z,31.50
2019-05-20T17:53:54.026Z,31.50
2019-05-20T17:56:26.307Z,31.50
2019-05-20T17:58:58.224Z,31.50
2019-05-20T18:01:30.741Z,31.40
2019-05-20T18:04:03.099Z,31.40
2019-05-20T18:06:35.331Z,31.40
2019-05-20T18:09:12.378Z,31.40
2019-05-20T18:11:44.389Z,31.40
2019-05-20T18:14:16.879Z,31.30
2019-05-20T18:16:50.230Z,31.40
2019-05-20T18:19:24.997Z,31.30
2019-05-20T18:21:56.129Z,31.30
2019-05-20T18:24:29.348Z,31.20
2019-05-20T18:27:01.645Z,31.20
2019-05-20T18:29:33.850Z,31.20
2019-05-20T18:32:06.145Z,31.20
2019-05-20T18:34:38.336Z,31.10
2019-05-20T18:37:10.426Z,31.10
2019-05-20T18:39:42.462Z,31.10
2019-05-20T18:42:17.418Z,31.10
2019-05-20T18:44:49.449Z,31.00
2019-05-20T18:47:21.411Z,31.00
2019-05-20T18:49:53.909Z,31.00
2019-05-20T18:52:26.066Z,31.00
2019-05-20T18:54:58.486Z,31.00
2019-05-20T18:57:30.574Z,30.90
2019-05-20T19:00:02.946Z,30.90
2019-05-20T19:02:40.308Z,30.90
2019-05-20T19:05:13.645Z,30.90
2019-05-20T19:07:47.905Z,30.90
2019-05-20T19:10:20.262Z,30.90
2019-05-20T19:12:52.608Z,30.80
2019-05-20T19:15:24.891Z,30.80
2019-05-20T19:17:57.015Z,30.80
2019-05-20T19:20:30.300Z,30.80
2019-05-20T19:23:02.252Z,30.70
2019-05-20T19:25:37.772Z,30.70
2019-05-20T19:28:08.563Z,30.70
2019-05-20T19:30:40.724Z,30.70
2019-05-20T19:33:14.129Z,30.70
2019-05-20T19:35:46.112Z,30.70
2019-05-20T19:38:18.256Z,30.70
2019-05-20T19:40:51.665Z,30.60
2019-05-20T19:43:24.778Z,30.60
2019-05-20T19:45:57.234Z,30.60
2019-05-20T19:48:29.377Z,30.60
2019-05-20T19:51:01.856Z,30.60
2019-05-20T19:53:34.207Z,30.60
2019-05-20T19:56:07.306Z,30.50
2019-05-20T19:58:39.742Z,30.50
2019-05-20T20:01:12.029Z,30.50
2019-05-20T20:03:44.331Z,30.50
2019-05-20T20:06:16.521Z,30.50
2019-05-20T20:08:48.680Z,30.50
2019-05-20T20:11:20.663Z,30.40
2019-05-20T20:13:53.037Z,30.40
2019-05-20T20:16:25.124Z,30.40
2019-05-20T20:18:57.110Z,30.40
2019-05-20T20:21:29.574Z,30.30
2019-05-20T20:24:01.508Z,30.30
2019-05-20T20:26:34.890Z,30.30
2019-05-20T20:29:07.062Z,30.30
2019-05-20T20:31:39.261Z,30.30
2019-05-20T20:34:11.636Z,30.20
2019-05-20T20:36:44.075Z,30.20
2019-05-20T20:39:16.090Z,30.20
2019-05-20T20:41:48.110Z,30.20
2019-05-20T20:44:20.293Z,30.20
2019-05-20T20:46:52.554Z,30.10
2019-05-20T20:49:24.621Z,30.10
2019-05-20T20:51:56.796Z,30.10
2019-05-20T20:54:28.625Z,30.00
2019-05-20T20:57:02.400Z,30.00
2019-05-20T20:59:34.471Z,30.00
2019-05-20T21:02:06.734Z,30.00
2019-05-20T21:04:39.061Z,30.00
2019-05-20T21:07:11.264Z,30.00
2019-05-20T21:09:43.291Z,29.90
2019-05-20T21:12:15.444Z,29.90
2019-05-20T21:14:47.529Z,29.90
2019-05-20T21:17:30.806Z,29.90
2019-05-20T21:20:02.904Z,29.90
2019-05-20T21:22:36.167Z,29.90
2019-05-20T21:25:09.203Z,29.80
2019-05-20T21:27:41.166Z,29.80
2019-05-20T21:30:14.314Z,29.80
2019-05-20T21:32:47.285Z,29.80
2019-05-20T21:35:19.259Z,29.80
2019-05-20T21:37:51.677Z,29.70
2019-05-20T21:40:23.746Z,29.70
2019-05-20T21:42:55.760Z,29.70
2019-05-20T21:45:28.024Z,29.70
2019-05-20T21:48:00.009Z,29.60
2019-05-20T21:50:32.118Z,29.60
2019-05-20T21:53:04.491Z,29.60
2019-05-20T21:55:36.808Z,29.60
2019-05-20T21:58:09.285Z,29.60
2019-05-20T22:00:41.562Z,29.60
2019-05-20T22:03:23.885Z,29.60
2019-05-20T22:05:47.328Z,29.60
2019-05-20T22:08:19.911Z,29.60
2019-05-20T22:10:52.290Z,29.60
2019-05-20T22:13:24.412Z,29.60
2019-05-20T22:15:56.473Z,29.60
2019-05-20T22:18:29.099Z,29.60
2019-05-20T22:21:01.707Z,29.50
2019-05-20T22:23:34.911Z,29.60
2019-05-20T22:26:07.387Z,29.60
2019-05-20T22:28:39.435Z,29.60
2019-05-20T22:31:12.183Z,29.60
2019-05-20T22:33:44.263Z,29.60
2019-05-20T22:36:16.258Z,29.60
2019-05-20T22:38:48.579Z,29.60
2019-05-20T22:41:21.784Z,29.50
2019-05-20T22:43:54.202Z,29.50
2019-05-20T22:46:26.319Z,29.50
2019-05-20T22:48:58.376Z,29.50
2019-05-20T22:51:30.701Z,29.50
2019-05-20T22:54:02.823Z,29.50
2019-05-20T22:56:35.101Z,29.50
2019-05-20T22:59:07.679Z,29.50
2019-05-20T23:01:39.711Z,29.50
2019-05-20T23:04:12.126Z,29.50
2019-05-20T23:06:44.174Z,29.50
2019-05-20T23:09:16.407Z,29.50
2019-05-20T23:11:48.840Z,29.50
2019-05-20T23:14:21.012Z,29.50
2019-05-20T23:16:53.709Z,29.50
2019-05-20T23:19:25.551Z,29.50
2019-05-20T23:21:57.719Z,29.50
2019-05-20T23:24:30.167Z,29.50
2019-05-20T23:27:02.263Z,29.60
2019-05-20T23:29:34.948Z,29.60
2019-05-20T23:32:07.146Z,29.60
2019-05-20T23:34:40.346Z,29.60
2019-05-20T23:37:12.721Z,29.70
2019-05-20T23:39:44.884Z,29.70
2019-05-20T23:42:17.413Z,29.70
2019-05-20T23:44:49.583Z,29.70
2019-05-20T23:47:21.553Z,29.70
2019-05-20T23:49:56.869Z,29.80
2019-05-20T23:52:29.093Z,29.80
2019-05-20T23:55:01.529Z,29.80
2019-05-20T23:57:34.250Z,29.80
